Terminal Aerodrome Forecast
Issued by NWS Portland, ME

Home | Current Version | Previous Version | Text Only | Print | Product List | Glossary On
Versions: 1 2 3 4 5 6 7 8 9 10 11 12 13 14 15 16 17 18
000
FTUS41 KGYX 260225 AAC
TAFPWM
TAF AMD
KPWM 260225Z 2602/2624 VRB04KT P6SM SCT050 BKN080
      TEMPO 2602/2604 2SM RA SCT004 BKN050 OVC080
     FM260900 27005KT P6SM SCT030 SCT120
     FM261300 30009G18KT P6SM SCT040=

USA.gov is the U.S. government's official web portal to all federal, state and local government web resources and services.